createdAt,value
2022-10-25T00:02:17.284Z,12.07
2022-10-25T00:04:45.851Z,12.07
2022-10-25T00:07:15.202Z,12.08
2022-10-25T00:09:43.043Z,12.09
2022-10-25T00:12:10.588Z,12.09
2022-10-25T00:14:38.167Z,12.07
2022-10-25T00:17:05.738Z,12.10
2022-10-25T00:19:33.254Z,12.13
2022-10-25T00:22:00.853Z,12.12
2022-10-25T00:24:29.776Z,12.15
2022-10-25T00:26:57.328Z,12.16
2022-10-25T00:29:25.068Z,12.17
2022-10-25T00:31:52.631Z,12.17
2022-10-25T00:34:20.156Z,12.17
2022-10-25T00:36:47.644Z,12.21
2022-10-25T00:39:15.171Z,12.20
2022-10-25T00:41:44.027Z,12.18
2022-10-25T00:44:47.777Z,12.17
2022-10-25T00:47:19.938Z,12.21
2022-10-25T00:49:50.300Z,12.21
2022-10-25T00:52:17.980Z,12.22
2022-10-25T00:54:49.913Z,12.22
2022-10-25T00:57:23.070Z,12.20
2022-10-25T00:59:51.212Z,12.13
2022-10-25T01:02:20.832Z,12.12
2022-10-25T01:04:48.562Z,12.13
2022-10-25T01:07:16.127Z,12.18
2022-10-25T01:09:44.536Z,12.19
2022-10-25T01:12:12.316Z,12.19
2022-10-25T01:14:45.660Z,12.20
2022-10-25T01:17:19.331Z,12.20
2022-10-25T01:20:04.984Z,12.22
2022-10-25T01:22:39.434Z,12.22
2022-10-25T01:25:32.344Z,12.24
2022-10-25T01:28:07.626Z,12.27
2022-10-25T01:31:22.874Z,12.27
2022-10-25T01:33:58.001Z,12.24
2022-10-25T01:36:36.935Z,12.22
2022-10-25T01:39:11.147Z,12.24
2022-10-25T01:41:48.683Z,12.27
2022-10-25T01:44:31.235Z,12.27
2022-10-25T01:47:03.712Z,12.35
2022-10-25T01:49:38.349Z,12.33
2022-10-25T01:52:05.921Z,12.35
2022-10-25T01:54:33.622Z,12.33
2022-10-25T01:57:18.441Z,12.36
2022-10-25T02:00:08.736Z,12.37
2022-10-25T02:02:55.362Z,12.42
2022-10-25T02:05:28.529Z,12.43
2022-10-25T02:08:04.232Z,12.48
2022-10-25T02:10:36.780Z,12.48
2022-10-25T02:13:15.469Z,12.48
2022-10-25T02:15:50.820Z,12.44
2022-10-25T02:18:23.439Z,12.44
2022-10-25T02:20:55.700Z,12.43
2022-10-25T02:23:24.712Z,12.44
2022-10-25T02:25:53.293Z,12.43
2022-10-25T02:28:24.876Z,12.44
2022-10-25T02:30:54.872Z,12.42
2022-10-25T02:33:22.407Z,12.47
2022-10-25T02:36:13.405Z,12.49
2022-10-25T02:38:42.066Z,12.41
2022-10-25T02:41:09.800Z,12.42
2022-10-25T02:43:37.473Z,12.43
2022-10-25T02:46:09.563Z,12.40
2022-10-25T02:48:37.631Z,12.42
2022-10-25T02:51:06.075Z,12.45
2022-10-25T02:53:35.987Z,12.47
2022-10-25T02:56:04.744Z,12.52
2022-10-25T02:58:34.666Z,12.56
2022-10-25T03:01:02.763Z,12.59
2022-10-25T03:03:31.181Z,12.63
2022-10-25T03:05:59.642Z,12.64
2022-10-25T03:11:02.155Z,12.68
2022-10-25T03:13:29.705Z,12.69
2022-10-25T03:15:57.219Z,12.78
2022-10-25T03:18:24.730Z,12.85
2022-10-25T03:20:53.031Z,12.91
2022-10-25T03:23:20.553Z,13.03
2022-10-25T03:25:49.755Z,13.37
2022-10-25T03:28:20.966Z,13.42
2022-10-25T03:30:48.817Z,13.44
2022-10-25T03:33:16.984Z,13.48
2022-10-25T03:35:44.552Z,13.52
2022-10-25T03:38:12.379Z,13.62
2022-10-25T03:40:39.875Z,13.64
2022-10-25T03:43:07.463Z,13.69
2022-10-25T03:45:36.465Z,13.71
2022-10-25T03:48:03.995Z,13.74
2022-10-25T03:50:31.564Z,13.74
2022-10-25T03:52:59.229Z,13.73
2022-10-25T03:55:26.822Z,13.67
2022-10-25T03:57:54.412Z,13.61
2022-10-25T04:00:22.288Z,13.51
2022-10-25T04:02:59.393Z,13.47
2022-10-25T04:05:29.677Z,13.41
2022-10-25T04:07:57.228Z,13.34
2022-10-25T04:10:25.365Z,13.23
2022-10-25T04:12:54.616Z,13.07
2022-10-25T04:15:23.557Z,12.98
2022-10-25T04:17:51.588Z,12.86
2022-10-25T04:20:21.275Z,12.85
2022-10-25T04:22:54.763Z,12.79
2022-10-25T04:25:22.429Z,12.75
2022-10-25T04:27:50.095Z,12.71
2022-10-25T04:30:17.906Z,12.70
2022-10-25T04:32:45.711Z,12.69
2022-10-25T04:35:13.636Z,12.72
2022-10-25T04:37:42.506Z,12.74
2022-10-25T04:40:11.813Z,12.75
2022-10-25T04:42:39.396Z,12.73
2022-10-25T04:45:07.662Z,12.76
2022-10-25T04:47:35.307Z,12.77
2022-10-25T04:50:02.840Z,12.77
2022-10-25T04:52:30.870Z,12.84
2022-10-25T04:55:00.135Z,12.91
2022-10-25T04:57:27.655Z,12.90
2022-10-25T04:59:57.469Z,12.89
2022-10-25T05:02:25.258Z,12.89
2022-10-25T05:04:52.805Z,12.88
2022-10-25T05:07:20.828Z,12.90
2022-10-25T05:09:48.437Z,12.91
2022-10-25T05:12:17.300Z,12.90
2022-10-25T05:14:44.952Z,12.92
2022-10-25T05:17:12.553Z,12.92
2022-10-25T05:19:40.128Z,12.91
2022-10-25T05:22:07.672Z,12.91
2022-10-25T05:24:35.220Z,12.93
2022-10-25T05:27:02.822Z,12.92
2022-10-25T05:29:31.793Z,12.89
2022-10-25T05:31:59.696Z,12.92
2022-10-25T05:34:27.276Z,12.94
2022-10-25T05:36:54.850Z,12.97
2022-10-25T05:39:22.409Z,13.00
2022-10-25T05:41:50.588Z,13.01
2022-10-25T05:44:18.232Z,13.00
2022-10-25T05:46:47.308Z,13.00
2022-10-25T05:49:15.077Z,12.96
2022-10-25T05:51:42.708Z,12.92
2022-10-25T05:54:12.532Z,12.94
2022-10-25T05:56:40.487Z,12.93
2022-10-25T05:59:10.106Z,12.97
2022-10-25T06:01:39.140Z,12.99
2022-10-25T06:04:08.980Z,12.99
2022-10-25T06:06:37.101Z,13.04
2022-10-25T06:09:06.002Z,13.01
2022-10-25T06:11:34.223Z,13.01
2022-10-25T06:14:01.948Z,13.10
2022-10-25T06:16:29.746Z,13.13
2022-10-25T06:18:57.438Z,13.13
2022-10-25T06:21:28.553Z,13.16
2022-10-25T06:23:57.156Z,13.17
2022-10-25T06:26:27.200Z,13.38
2022-10-25T06:28:56.292Z,13.52
2022-10-25T06:31:24.493Z,13.70
2022-10-25T06:33:52.606Z,13.86
2022-10-25T06:36:22.107Z,13.92
2022-10-25T06:38:51.578Z,13.87
2022-10-25T06:41:21.256Z,13.89
2022-10-25T06:43:49.420Z,13.90
2022-10-25T06:46:22.439Z,13.89
2022-10-25T06:48:50.388Z,13.86
2022-10-25T06:51:18.058Z,13.84
2022-10-25T06:53:45.730Z,13.85
2022-10-25T06:56:15.520Z,13.87
2022-10-25T06:58:43.513Z,13.89
2022-10-25T07:01:13.137Z,13.91
2022-10-25T07:03:41.045Z,13.96
2022-10-25T07:06:10.816Z,13.99
2022-10-25T07:08:40.332Z,14.05
2022-10-25T07:11:09.821Z,14.13
2022-10-25T07:13:38.757Z,14.22
2022-10-25T07:16:08.243Z,14.22
2022-10-25T07:18:36.915Z,14.35
2022-10-25T07:21:06.401Z,14.38
2022-10-25T07:23:35.125Z,14.41
2022-10-25T07:26:02.792Z,14.48
2022-10-25T07:28:30.593Z,14.51
2022-10-25T07:30:59.635Z,14.53
2022-10-25T07:33:27.433Z,14.60
2022-10-25T07:36:11.507Z,14.70
2022-10-25T07:38:39.805Z,14.85
2022-10-25T07:41:07.896Z,14.97
2022-10-25T07:43:35.715Z,15.06
2022-10-25T07:46:05.316Z,15.20
2022-10-25T07:48:33.352Z,15.30
2022-10-25T07:51:04.667Z,15.39
2022-10-25T07:53:32.510Z,15.58
2022-10-25T07:56:00.234Z,15.69
2022-10-25T07:58:27.912Z,15.67
2022-10-25T08:01:02.645Z,15.78
2022-10-25T08:03:32.593Z,15.87
2022-10-25T08:06:00.991Z,15.96
2022-10-25T08:08:29.018Z,16.02
2022-10-25T08:10:57.658Z,16.06
2022-10-25T08:13:25.408Z,16.10
2022-10-25T08:15:53.886Z,16.14
2022-10-25T08:18:21.875Z,16.23
2022-10-25T08:21:06.480Z,16.27
2022-10-25T08:23:34.358Z,16.32
2022-10-25T08:26:02.580Z,16.50
2022-10-25T08:28:31.693Z,16.50
2022-10-25T08:31:00.827Z,16.64
2022-10-25T08:33:28.986Z,16.70
2022-10-25T08:36:01.008Z,16.79
2022-10-25T08:38:28.677Z,16.88
2022-10-25T08:41:04.259Z,16.91
2022-10-25T08:44:08.525Z,16.97
2022-10-25T08:46:39.035Z,17.09
2022-10-25T08:49:14.290Z,17.16
2022-10-25T08:51:46.116Z,17.18
2022-10-25T08:54:24.229Z,17.22
2022-10-25T08:57:14.305Z,17.32
2022-10-25T08:59:46.479Z,17.46
2022-10-25T09:02:20.298Z,17.50
2022-10-25T09:04:48.207Z,17.46
2022-10-25T09:07:40.682Z,17.56
2022-10-25T09:10:23.394Z,17.48
2022-10-25T09:12:59.643Z,17.48
2022-10-25T09:15:42.126Z,17.53
2022-10-25T09:18:16.576Z,17.86
2022-10-25T09:20:48.732Z,17.99
2022-10-25T09:23:26.266Z,17.89
2022-10-25T09:26:02.460Z,18.05
2022-10-25T09:28:43.733Z,18.11
2022-10-25T09:31:15.031Z,18.30
2022-10-25T09:33:46.620Z,18.39
2022-10-25T09:36:15.471Z,18.49
2022-10-25T09:38:48.099Z,18.46
2022-10-25T09:41:20.289Z,18.55
2022-10-25T09:43:54.674Z,18.51
2022-10-25T09:46:31.600Z,18.56
2022-10-25T09:49:03.581Z,18.69
2022-10-25T09:51:36.950Z,18.96
2022-10-25T09:54:14.745Z,19.31
2022-10-25T09:56:42.409Z,19.39
2022-10-25T09:59:14.624Z,19.34
2022-10-25T10:01:43.122Z,19.29
2022-10-25T10:04:26.205Z,19.15
2022-10-25T10:06:58.419Z,19.00
2022-10-25T10:09:30.618Z,19.01
2022-10-25T10:12:00.471Z,18.71
2022-10-25T10:14:32.449Z,18.83
2022-10-25T10:17:01.104Z,18.84
2022-10-25T10:19:31.245Z,18.47
2022-10-25T10:22:01.918Z,18.36
2022-10-25T10:24:34.206Z,18.24
2022-10-25T10:27:06.216Z,18.40
2022-10-25T10:29:37.071Z,18.52
2022-10-25T10:32:07.244Z,18.58
2022-10-25T10:34:43.479Z,18.81
2022-10-25T10:37:16.525Z,19.06
2022-10-25T10:39:53.845Z,19.07
2022-10-25T10:42:23.466Z,19.27
2022-10-25T10:45:03.102Z,19.51
2022-10-25T10:47:34.826Z,19.53
2022-10-25T10:50:03.562Z,19.62
2022-10-25T10:52:37.520Z,19.92
2022-10-25T10:55:18.337Z,20.45
2022-10-25T10:57:46.305Z,20.37
2022-10-25T11:00:22.837Z,19.95
2022-10-25T11:02:51.485Z,19.92
2022-10-25T11:05:25.831Z,20.12
2022-10-25T11:07:56.102Z,20.46
2022-10-25T11:10:28.651Z,20.84
2022-10-25T11:13:08.388Z,21.20
2022-10-25T11:15:56.792Z,21.71
2022-10-25T11:18:32.326Z,22.20
2022-10-25T11:21:07.916Z,22.05
2022-10-25T11:23:45.773Z,22.42
2022-10-25T11:26:25.631Z,22.79
2022-10-25T11:29:03.674Z,21.94
2022-10-25T11:31:55.425Z,22.72
2022-10-25T11:34:31.773Z,23.40
2022-10-25T11:37:10.653Z,24.14
2022-10-25T11:39:48.525Z,24.38
2022-10-25T11:42:42.737Z,24.47
2022-10-25T11:45:23.244Z,24.49
2022-10-25T11:48:01.215Z,23.94
2022-10-25T11:50:35.391Z,23.96
2022-10-25T11:53:19.429Z,23.30
2022-10-25T11:55:52.835Z,22.70
2022-10-25T11:58:35.743Z,22.76
2022-10-25T12:01:17.841Z,22.69
2022-10-25T12:04:01.011Z,22.45
2022-10-25T12:06:38.156Z,22.37
2022-10-25T12:09:12.926Z,22.75
2022-10-25T12:11:45.308Z,22.64
2022-10-25T12:14:17.490Z,23.03
2022-10-25T12:16:45.752Z,23.50
2022-10-25T12:19:19.350Z,23.67
2022-10-25T12:21:51.303Z,24.29
2022-10-25T12:24:23.070Z,24.49
2022-10-25T12:26:54.235Z,24.97
2022-10-25T12:29:30.572Z,25.50
2022-10-25T12:32:01.997Z,25.97
2022-10-25T12:34:41.291Z,26.24
2022-10-25T12:37:15.709Z,25.86
2022-10-25T12:39:45.309Z,26.00
2022-10-25T12:42:18.531Z,26.51
2022-10-25T12:44:58.027Z,26.41
2022-10-25T12:48:00.537Z,26.54
2022-10-25T12:51:01.673Z,26.99
2022-10-25T12:54:04.844Z,27.42
2022-10-25T12:56:45.571Z,27.29
2022-10-25T12:59:30.607Z,26.91
2022-10-25T13:02:14.525Z,27.22
2022-10-25T13:05:02.217Z,27.40
2022-10-25T13:07:34.515Z,27.36
2022-10-25T13:10:05.602Z,27.86
2022-10-25T13:12:33.413Z,28.19
2022-10-25T13:15:02.013Z,28.06
2022-10-25T13:18:00.701Z,28.41
2022-10-25T13:20:59.157Z,27.71
2022-10-25T13:24:02.312Z,27.65
2022-10-25T13:26:33.630Z,27.60
2022-10-25T13:29:03.841Z,27.99
2022-10-25T13:31:58.080Z,28.13
2022-10-25T13:34:36.430Z,28.08
2022-10-25T13:37:06.665Z,28.06
2022-10-25T13:39:39.053Z,28.33
2022-10-25T13:42:23.308Z,27.93
2022-10-25T13:44:56.443Z,27.96
2022-10-25T13:47:29.687Z,28.20
2022-10-25T13:49:58.920Z,28.66
2022-10-25T13:52:33.020Z,28.89
2022-10-25T13:55:03.756Z,28.39
2022-10-25T13:57:54.369Z,28.50
2022-10-25T14:00:36.505Z,28.44
2022-10-25T14:03:25.473Z,28.41
2022-10-25T14:06:24.712Z,27.93
2022-10-25T14:08:57.152Z,28.53
2022-10-25T14:11:34.392Z,28.52
2022-10-25T14:14:08.223Z,28.86
2022-10-25T14:16:55.039Z,29.41
2022-10-25T14:19:25.276Z,30.33
2022-10-25T14:21:56.210Z,30.19
2022-10-25T14:24:23.937Z,30.08
2022-10-25T14:26:53.337Z,29.94
2022-10-25T14:29:23.029Z,29.74
2022-10-25T14:31:51.528Z,29.65
2022-10-25T14:34:21.804Z,29.37
2022-10-25T14:36:51.392Z,29.36
2022-10-25T14:39:23.860Z,29.38
2022-10-25T14:41:53.189Z,29.06
2022-10-25T14:44:25.156Z,28.56
2022-10-25T14:46:54.209Z,28.15
2022-10-25T14:49:22.740Z,27.72
2022-10-25T14:51:52.409Z,27.01
2022-10-25T14:54:30.448Z,26.84
2022-10-25T14:57:00.118Z,26.47
2022-10-25T14:59:30.311Z,26.10
2022-10-25T15:02:00.497Z,26.05
2022-10-25T15:04:31.573Z,25.96
2022-10-25T15:06:59.976Z,25.86
2022-10-25T15:09:42.312Z,25.63
2022-10-25T15:12:18.167Z,25.20
2022-10-25T15:14:48.032Z,24.75
2022-10-25T15:17:18.932Z,24.41
2022-10-25T15:20:05.032Z,23.84
2022-10-25T15:22:34.696Z,23.78
2022-10-25T15:25:19.127Z,23.52
2022-10-25T15:27:48.885Z,23.34
2022-10-25T15:30:36.766Z,23.09
2022-10-25T15:33:06.043Z,22.74
2022-10-25T15:35:42.232Z,22.47
2022-10-25T15:38:11.057Z,22.12
2022-10-25T15:40:40.045Z,22.06
2022-10-25T15:43:07.550Z,21.77
2022-10-25T15:45:35.085Z,21.41
2022-10-25T15:48:04.783Z,21.16
2022-10-25T15:50:32.582Z,21.00
2022-10-25T15:53:00.924Z,20.74
2022-10-25T15:55:32.817Z,20.51
2022-10-25T15:58:01.709Z,20.31
2022-10-25T16:00:30.831Z,19.84
2022-10-25T16:02:58.909Z,19.74
2022-10-25T16:05:28.740Z,19.41
2022-10-25T16:07:56.481Z,19.27
2022-10-25T16:10:25.595Z,19.07
2022-10-25T16:12:59.506Z,18.74
2022-10-25T16:15:28.981Z,18.57
2022-10-25T16:17:56.866Z,18.31
2022-10-25T16:20:26.205Z,18.17
2022-10-25T16:22:55.404Z,17.98
2022-10-25T16:25:25.905Z,17.80
2022-10-25T16:27:55.417Z,17.58
2022-10-25T16:30:25.074Z,17.45
2022-10-25T16:32:53.994Z,17.28
2022-10-25T16:35:24.153Z,17.16
2022-10-25T16:37:52.304Z,16.90
2022-10-25T16:40:21.812Z,16.82
2022-10-25T16:42:49.699Z,16.73
2022-10-25T16:45:22.361Z,16.64
2022-10-25T16:47:49.938Z,16.50
2022-10-25T16:50:23.027Z,16.28
2022-10-25T16:52:51.056Z,16.15
2022-10-25T16:55:19.269Z,16.12
2022-10-25T16:57:49.908Z,16.01
2022-10-25T17:00:17.941Z,15.91
2022-10-25T17:02:45.793Z,15.85
2022-10-25T17:05:19.996Z,15.83
2022-10-25T17:07:47.685Z,15.76
2022-10-25T17:10:15.439Z,15.67
2022-10-25T17:12:44.343Z,15.59
2022-10-25T17:15:12.672Z,15.43
2022-10-25T17:17:40.980Z,15.35
2022-10-25T17:20:10.343Z,15.34
2022-10-25T17:22:39.656Z,15.30
2022-10-25T17:25:09.196Z,15.24
2022-10-25T17:27:39.652Z,15.19
2022-10-25T17:30:08.653Z,15.15
2022-10-25T17:32:36.523Z,15.04
2022-10-25T17:35:05.544Z,15.01
2022-10-25T17:37:33.176Z,14.93
2022-10-25T17:40:02.480Z,14.88
2022-10-25T17:42:30.013Z,14.81
2022-10-25T17:44:57.573Z,14.78
2022-10-25T17:47:25.069Z,14.80
2022-10-25T17:49:54.232Z,14.81
2022-10-25T17:52:21.778Z,14.78
2022-10-25T17:54:49.295Z,14.70
2022-10-25T17:57:18.152Z,14.70
2022-10-25T17:59:45.714Z,14.79
2022-10-25T18:02:13.280Z,14.71
2022-10-25T18:04:53.629Z,14.65
2022-10-25T18:07:21.529Z,14.61
2022-10-25T18:09:49.072Z,14.56
2022-10-25T18:12:17.984Z,14.54
2022-10-25T18:14:45.577Z,14.47
2022-10-25T18:17:13.092Z,14.42
2022-10-25T18:19:40.715Z,14.36
2022-10-25T18:22:08.212Z,14.28
2022-10-25T18:24:37.017Z,14.14
2022-10-25T18:27:04.635Z,14.09
2022-10-25T18:29:35.272Z,14.07
2022-10-25T18:32:02.869Z,14.06
2022-10-25T18:34:30.500Z,14.03
2022-10-25T18:36:58.180Z,13.98
2022-10-25T18:39:25.855Z,13.94
2022-10-25T18:41:54.978Z,13.91
2022-10-25T18:44:22.769Z,13.87
2022-10-25T18:46:53.175Z,13.82
2022-10-25T18:49:20.785Z,13.78
2022-10-25T18:51:48.315Z,13.71
2022-10-25T18:54:15.883Z,13.67
2022-10-25T18:56:43.453Z,13.65
2022-10-25T18:59:11.464Z,13.63
2022-10-25T19:01:39.119Z,13.58
2022-10-25T19:04:08.237Z,13.53
2022-10-25T19:06:35.887Z,13.48
2022-10-25T19:09:04.567Z,13.47
2022-10-25T19:11:33.204Z,13.45
2022-10-25T19:14:01.324Z,13.45
2022-10-25T19:16:28.919Z,13.44
2022-10-25T19:18:56.458Z,13.39
2022-10-25T19:21:25.302Z,13.37
2022-10-25T19:23:54.107Z,13.30
2022-10-25T19:26:23.041Z,13.28
2022-10-25T19:28:56.619Z,13.23
2022-10-25T19:31:24.581Z,13.24
2022-10-25T19:33:52.812Z,13.24
2022-10-25T19:36:21.491Z,13.21
2022-10-25T19:38:50.439Z,13.23
2022-10-25T19:41:19.999Z,13.18
2022-10-25T19:43:48.029Z,13.16
2022-10-25T19:46:16.180Z,13.14
2022-10-25T19:48:43.740Z,13.11
2022-10-25T19:51:13.194Z,13.09
2022-10-25T19:53:41.040Z,13.06
2022-10-25T19:56:12.853Z,13.05
2022-10-25T19:58:40.908Z,13.02
2022-10-25T20:01:11.349Z,13.02
2022-10-25T20:03:39.998Z,13.00
2022-10-25T20:06:09.729Z,12.98
2022-10-25T20:08:39.128Z,13.00
2022-10-25T20:11:07.460Z,12.98
2022-10-25T20:13:36.672Z,12.96
2022-10-25T20:16:05.153Z,12.95
2022-10-25T20:18:34.916Z,12.91
2022-10-25T20:21:05.935Z,12.89
2022-10-25T20:23:33.596Z,12.85
2022-10-25T20:26:10.892Z,12.82
2022-10-25T20:28:39.782Z,12.80
2022-10-25T20:31:07.667Z,12.77
2022-10-25T20:33:35.221Z,12.76
2022-10-25T20:36:03.862Z,12.76
2022-10-25T20:38:32.197Z,12.78
2022-10-25T20:41:03.804Z,12.87
2022-10-25T20:43:31.386Z,12.86
2022-10-25T20:46:00.928Z,12.89
2022-10-25T20:48:28.569Z,12.89
2022-10-25T20:50:56.264Z,12.93
2022-10-25T20:53:24.440Z,12.94
2022-10-25T20:55:51.940Z,12.93
2022-10-25T20:58:21.124Z,12.91
2022-10-25T21:00:49.363Z,12.93
2022-10-25T21:03:18.241Z,12.92
2022-10-25T21:05:45.788Z,12.93
2022-10-25T21:08:13.644Z,12.95
2022-10-25T21:10:41.612Z,12.97
2022-10-25T21:13:09.989Z,12.94
2022-10-25T21:15:37.671Z,12.97
2022-10-25T21:18:05.340Z,13.03
2022-10-25T21:20:34.216Z,13.05
2022-10-25T21:23:01.712Z,13.07
2022-10-25T21:25:29.425Z,13.08
2022-10-25T21:27:57.904Z,13.12
2022-10-25T21:30:25.467Z,13.14
2022-10-25T21:32:53.065Z,13.17
2022-10-25T21:35:21.074Z,13.21
2022-10-25T21:37:50.469Z,13.25
2022-10-25T21:40:19.468Z,13.26
2022-10-25T21:42:47.147Z,13.31
2022-10-25T21:45:14.660Z,13.36
2022-10-25T21:47:42.173Z,13.34
2022-10-25T21:50:10.513Z,13.30
2022-10-25T21:52:38.093Z,13.26
2022-10-25T21:55:08.095Z,13.26
2022-10-25T21:57:36.204Z,13.26
2022-10-25T22:00:04.596Z,13.25
2022-10-25T22:02:40.564Z,13.31
2022-10-25T22:05:08.904Z,13.29
2022-10-25T22:07:36.441Z,13.27
2022-10-25T22:10:04.164Z,13.22
2022-10-25T22:12:33.014Z,13.20
2022-10-25T22:15:00.538Z,13.22
2022-10-25T22:17:28.048Z,13.23
2022-10-25T22:19:55.553Z,13.24
2022-10-25T22:22:23.072Z,13.24
2022-10-25T22:24:50.587Z,13.25
2022-10-25T22:27:18.156Z,13.26
2022-10-25T22:29:47.024Z,13.27
2022-10-25T22:32:14.534Z,13.32
2022-10-25T22:34:42.621Z,13.36
2022-10-25T22:37:10.130Z,13.38
2022-10-25T22:39:37.700Z,13.37
2022-10-25T22:42:11.461Z,13.39
2022-10-25T22:44:39.382Z,13.43
2022-10-25T22:47:08.244Z,13.42
2022-10-25T22:49:35.792Z,13.40
2022-10-25T22:52:03.346Z,13.41
2022-10-25T22:54:30.877Z,13.38
2022-10-25T22:56:58.487Z,13.37
2022-10-25T22:59:26.005Z,13.39
2022-10-25T23:01:53.819Z,13.38
2022-10-25T23:04:22.797Z,13.36
2022-10-25T23:06:50.376Z,13.30
2022-10-25T23:09:17.943Z,13.31
2022-10-25T23:11:45.901Z,13.32
2022-10-25T23:14:16.607Z,13.30
2022-10-25T23:16:45.431Z,13.34
2022-10-25T23:19:12.957Z,13.36
2022-10-25T23:21:41.878Z,13.39
2022-10-25T23:24:10.303Z,13.39
2022-10-25T23:26:37.946Z,13.41
2022-10-25T23:29:05.689Z,13.44
2022-10-25T23:31:33.564Z,13.41
2022-10-25T23:34:01.813Z,13.47
2022-10-25T23:36:36.960Z,13.49
2022-10-25T23:39:07.112Z,13.55
2022-10-25T23:41:34.649Z,13.56
2022-10-25T23:44:02.317Z,13.57
2022-10-25T23:46:29.841Z,13.59
2022-10-25T23:48:57.661Z,13.63
2022-10-25T23:51:25.238Z,13.63
2022-10-25T23:53:52.769Z,13.65
2022-10-25T23:56:21.650Z,13.66
2022-10-25T23:58:53.164Z,13.70
